createdAt,value
2023-05-19T00:01:57.381Z,101873.81
2023-05-19T00:04:27.052Z,101874.66
2023-05-19T00:06:55.519Z,101874.91
2023-05-19T00:09:24.047Z,101875.47
2023-05-19T00:11:52.565Z,101877.09
2023-05-19T00:14:21.151Z,101871.56
2023-05-19T00:16:49.899Z,101879.84
2023-05-19T00:19:18.714Z,101871.00
2023-05-19T00:21:47.108Z,101877.06
2023-05-19T00:24:15.378Z,101872.94
2023-05-19T00:26:43.708Z,101878.19
2023-05-19T00:29:12.046Z,101871.53
2023-05-19T00:31:40.571Z,101866.28
2023-05-19T00:34:10.992Z,101872.34
2023-05-19T00:36:39.335Z,101871.50
2023-05-19T00:39:07.705Z,101868.75
2023-05-19T00:41:36.935Z,101867.63
2023-05-19T00:44:06.985Z,101870.94
2023-05-19T00:46:35.588Z,101866.78
2023-05-19T00:49:03.886Z,101868.16
2023-05-19T00:51:32.432Z,101859.84
2023-05-19T00:54:01.095Z,101857.06
2023-05-19T00:56:29.520Z,101848.22
2023-05-19T00:58:58.560Z,101858.16
2023-05-19T01:01:27.875Z,101855.91
2023-05-19T01:03:59.143Z,101857.31
2023-05-19T01:06:27.763Z,101855.91
2023-05-19T01:08:57.466Z,101854.53
2023-05-19T01:11:25.934Z,101856.72
2023-05-19T01:13:54.229Z,101852.00
2023-05-19T01:16:34.605Z,101855.56
2023-05-19T01:19:14.720Z,101855.28
2023-05-19T01:22:42.888Z,101862.44
2023-05-19T01:25:49.675Z,101854.69
2023-05-19T01:28:55.642Z,101858.25
2023-05-19T01:31:24.210Z,101856.28
2023-05-19T01:33:54.355Z,101858.47
2023-05-19T01:36:23.480Z,101859.56
2023-05-19T01:38:58.578Z,101855.69
2023-05-19T01:41:28.506Z,101849.59
2023-05-19T01:43:57.902Z,101857.28
2023-05-19T01:46:26.378Z,101858.66
2023-05-19T01:48:54.948Z,101852.88
2023-05-19T01:51:23.323Z,101855.63
2023-05-19T01:53:51.695Z,101864.41
2023-05-19T01:56:34.547Z,101858.88
2023-05-19T01:59:46.862Z,101866.53
2023-05-19T02:02:43.462Z,101861.25
2023-05-19T02:05:29.439Z,101864.56
2023-05-19T02:08:31.039Z,101869.78
2023-05-19T02:11:07.958Z,101871.16
2023-05-19T02:13:38.412Z,101866.44
2023-05-19T02:16:07.386Z,101866.69
2023-05-19T02:18:35.808Z,101865.81
2023-05-19T02:21:04.330Z,101863.59
2023-05-19T02:23:32.614Z,101871.28
2023-05-19T02:26:01.327Z,101869.31
2023-05-19T02:28:29.657Z,101856.06
2023-05-19T02:31:00.006Z,101855.50
2023-05-19T02:33:30.357Z,101862.03
2023-05-19T02:35:58.739Z,101857.91
2023-05-19T02:38:27.134Z,101863.16
2023-05-19T02:40:55.454Z,101861.22
2023-05-19T02:43:23.754Z,101858.97
2023-05-19T02:45:52.089Z,101861.72
2023-05-19T02:48:21.374Z,101858.66
2023-05-19T02:50:52.268Z,101855.59
2023-05-19T02:53:20.575Z,101851.75
2023-05-19T02:55:49.026Z,101861.41
2023-05-19T02:58:17.276Z,101855.59
2023-05-19T03:00:45.929Z,101857.25
2023-05-19T03:03:14.931Z,101856.44
2023-05-19T03:05:43.752Z,101852.56
2023-05-19T03:08:12.284Z,101843.97
2023-05-19T03:10:40.633Z,101849.16
2023-05-19T03:13:08.941Z,101845.00
2023-05-19T03:15:37.250Z,101853.72
2023-05-19T03:18:06.716Z,101849.38
2023-05-19T03:20:35.232Z,101848.75
2023-05-19T03:23:03.597Z,101841.03
2023-05-19T03:25:31.862Z,101839.41
2023-05-19T03:28:00.316Z,101841.28
2023-05-19T03:30:28.642Z,101834.41
2023-05-19T03:33:08.988Z,101831.91
2023-05-19T03:35:37.451Z,101834.91
2023-05-19T03:38:05.957Z,101839.28
2023-05-19T03:40:36.188Z,101834.03
2023-05-19T03:43:09.903Z,101844.19
2023-05-19T03:45:45.847Z,101843.06
2023-05-19T03:48:49.126Z,101844.13
2023-05-19T03:51:34.846Z,101849.03
2023-05-19T03:54:10.399Z,101852.28
2023-05-19T03:56:40.997Z,101855.03
2023-05-19T03:59:12.898Z,101850.38
2023-05-19T04:01:41.301Z,101846.72
2023-05-19T04:04:09.670Z,101855.84
2023-05-19T04:06:38.070Z,101847.81
2023-05-19T04:09:14.581Z,101851.41
2023-05-19T04:11:43.368Z,101853.91
2023-05-19T04:14:11.662Z,101852.28
2023-05-19T04:16:39.979Z,101857.78
2023-05-19T04:19:08.479Z,101861.69
2023-05-19T04:21:36.900Z,101872.19
2023-05-19T04:24:06.476Z,101878.84
2023-05-19T04:26:35.912Z,101871.81
2023-05-19T04:29:04.882Z,101868.47
2023-05-19T04:31:35.273Z,101880.31
2023-05-19T04:34:07.815Z,101870.75
2023-05-19T04:36:38.409Z,101858.72
2023-05-19T04:39:09.521Z,101861.78
2023-05-19T04:41:40.483Z,101868.41
2023-05-19T04:44:09.488Z,101866.06
2023-05-19T04:46:38.944Z,101867.50
2023-05-19T04:49:07.804Z,101868.91
2023-05-19T04:51:36.204Z,101867.59
2023-05-19T04:54:04.583Z,101869.81
2023-05-19T04:56:33.242Z,101870.13
2023-05-19T04:59:02.937Z,101863.66
2023-05-19T05:01:32.910Z,101872.41
2023-05-19T05:04:02.698Z,101864.06
2023-05-19T05:06:31.968Z,101866.88
2023-05-19T05:09:00.690Z,101866.13
2023-05-19T05:11:29.893Z,101862.84
2023-05-19T05:13:58.600Z,101859.56
2023-05-19T05:16:29.718Z,101863.53
2023-05-19T05:19:03.191Z,101862.19
2023-05-19T05:21:32.929Z,101865.22
2023-05-19T05:24:01.698Z,101856.47
2023-05-19T05:26:58.982Z,101855.91
2023-05-19T05:29:27.806Z,101858.44
2023-05-19T05:32:22.233Z,101863.75
2023-05-19T05:34:50.984Z,101862.66
2023-05-19T05:37:19.315Z,101866.84
2023-05-19T05:39:47.686Z,101858.88
2023-05-19T05:42:16.230Z,101856.69
2023-05-19T05:44:45.115Z,101853.94
2023-05-19T05:47:14.155Z,101854.50
2023-05-19T05:49:43.897Z,101855.34
2023-05-19T05:52:13.216Z,101852.34
2023-05-19T05:54:47.089Z,101854.00
2023-05-19T05:57:18.482Z,101850.13
2023-05-19T05:59:47.295Z,101857.66
2023-05-19T06:02:22.468Z,101854.63
2023-05-19T06:04:50.881Z,101850.47
2023-05-19T06:07:19.131Z,101863.72
2023-05-19T06:09:47.582Z,101855.69
2023-05-19T06:12:17.110Z,101856.81
2023-05-19T06:14:49.585Z,101854.03
2023-05-19T06:17:26.992Z,101858.72
2023-05-19T06:19:55.633Z,101856.22
2023-05-19T06:22:24.396Z,101851.22
2023-05-19T06:24:52.998Z,101854.22
2023-05-19T06:27:21.312Z,101854.47
2023-05-19T06:29:49.598Z,101850.84
2023-05-19T06:32:18.042Z,101847.50
2023-05-19T06:34:53.930Z,101845.22
2023-05-19T06:37:25.407Z,101848.22
2023-05-19T06:39:54.480Z,101848.75
2023-05-19T06:42:26.477Z,101846.75
2023-05-19T06:45:09.907Z,101851.41
2023-05-19T06:47:42.409Z,101850.50
2023-05-19T06:50:10.766Z,101838.19
2023-05-19T06:52:42.671Z,101846.47
2023-05-19T06:55:11.098Z,101843.06
2023-05-19T06:57:40.444Z,101846.03
2023-05-19T07:00:14.616Z,101848.19
2023-05-19T07:02:47.998Z,101846.41
2023-05-19T07:05:16.719Z,101849.66
2023-05-19T07:07:50.079Z,101843.50
2023-05-19T07:10:22.517Z,101836.75
2023-05-19T07:12:51.805Z,101843.59
2023-05-19T07:15:23.280Z,101837.13
2023-05-19T07:17:51.717Z,101844.56
2023-05-19T07:20:20.090Z,101839.13
2023-05-19T07:22:48.516Z,101833.97
2023-05-19T07:25:17.210Z,101839.16
2023-05-19T07:27:48.577Z,101837.91
2023-05-19T07:30:16.869Z,101840.63
2023-05-19T07:32:45.214Z,101828.53
2023-05-19T07:35:16.562Z,101836.25
2023-05-19T07:37:44.841Z,101832.50
2023-05-19T07:40:13.342Z,101831.91
2023-05-19T07:42:41.986Z,101834.75
2023-05-19T07:45:12.063Z,101830.22
2023-05-19T07:47:40.435Z,101830.63
2023-05-19T07:50:09.077Z,101835.81
2023-05-19T07:52:37.385Z,101821.44
2023-05-19T07:55:06.163Z,101829.91
2023-05-19T07:57:34.501Z,101832.81
2023-05-19T08:00:07.551Z,101825.44
2023-05-19T08:02:40.789Z,101827.94
2023-05-19T08:05:09.871Z,101829.47
2023-05-19T08:07:38.373Z,101823.81
2023-05-19T08:10:07.344Z,101814.34
2023-05-19T08:12:35.823Z,101805.66
2023-05-19T08:15:04.735Z,101809.44
2023-05-19T08:17:33.144Z,101801.97
2023-05-19T08:20:01.430Z,101807.94
2023-05-19T08:22:29.878Z,101814.34
2023-05-19T08:24:58.234Z,101807.84
2023-05-19T08:27:26.530Z,101810.19
2023-05-19T08:29:55.456Z,101810.28
2023-05-19T08:32:24.186Z,101809.56
2023-05-19T08:34:52.623Z,101809.19
2023-05-19T08:37:21.100Z,101807.72
2023-05-19T08:39:49.489Z,101809.63
2023-05-19T08:42:17.776Z,101801.53
2023-05-19T08:44:46.137Z,101788.19
2023-05-19T08:47:15.189Z,101788.72
2023-05-19T08:49:47.494Z,101791.88
2023-05-19T08:52:53.128Z,101785.03
2023-05-19T08:55:58.998Z,101774.72
2023-05-19T08:58:28.814Z,101772.66
2023-05-19T09:00:57.449Z,101768.78
2023-05-19T09:03:26.523Z,101768.78
2023-05-19T09:05:55.031Z,101762.75
2023-05-19T09:08:23.360Z,101767.84
2023-05-19T09:10:51.670Z,101764.00
2023-05-19T09:13:19.940Z,101762.34
2023-05-19T09:15:49.329Z,101758.25
2023-05-19T09:18:17.866Z,101763.34
2023-05-19T09:20:47.244Z,101764.03
2023-05-19T09:23:17.727Z,101755.97
2023-05-19T09:25:49.977Z,101751.88
2023-05-19T09:28:30.959Z,101753.03
2023-05-19T09:31:08.368Z,101748.22
2023-05-19T09:33:39.207Z,101749.53
2023-05-19T09:36:13.845Z,101733.84
2023-05-19T09:38:42.477Z,101727.97
2023-05-19T09:41:11.232Z,101724.28
2023-05-19T09:43:39.501Z,101728.88
2023-05-19T09:46:12.127Z,101726.69
2023-05-19T09:48:42.753Z,101713.28
2023-05-19T09:51:11.693Z,101714.59
2023-05-19T09:53:40.048Z,101712.00
2023-05-19T09:56:09.960Z,101708.28
2023-05-19T09:58:39.032Z,101714.84
2023-05-19T10:01:07.591Z,101709.47
2023-05-19T10:03:36.641Z,101711.28
2023-05-19T10:06:05.558Z,101697.91
2023-05-19T10:08:35.862Z,101685.97
2023-05-19T10:11:04.337Z,101683.59
2023-05-19T10:13:32.893Z,101687.34
2023-05-19T10:16:01.781Z,101689.75
2023-05-19T10:18:30.293Z,101686.59
2023-05-19T10:21:00.168Z,101676.13
2023-05-19T10:23:28.424Z,101677.88
2023-05-19T10:25:59.259Z,101676.94
2023-05-19T10:28:35.334Z,101669.44
2023-05-19T10:34:21.894Z,101674.31
2023-05-19T10:37:12.094Z,101680.38
2023-05-19T10:39:44.394Z,101688.94
2023-05-19T10:42:38.432Z,101678.13
2023-05-19T10:45:21.284Z,101677.97
2023-05-19T10:47:51.774Z,101674.78
2023-05-19T10:50:21.114Z,101662.50
2023-05-19T10:52:56.887Z,101679.66
2023-05-19T10:55:53.228Z,101672.78
2023-05-19T10:58:46.158Z,101660.53
2023-05-19T11:01:17.004Z,101656.50
2023-05-19T11:03:47.383Z,101651.81
2023-05-19T11:06:29.635Z,101650.28
2023-05-19T11:09:00.972Z,101654.66
2023-05-19T11:11:51.992Z,101651.63
2023-05-19T11:14:26.838Z,101642.03
2023-05-19T11:16:59.621Z,101645.50
2023-05-19T11:19:32.562Z,101648.41
2023-05-19T11:22:13.945Z,101648.41
2023-05-19T11:24:53.388Z,101625.69
2023-05-19T11:27:23.119Z,101637.28
2023-05-19T11:29:52.103Z,101635.41
2023-05-19T11:32:26.996Z,101630.59
2023-05-19T11:34:57.586Z,101620.31
2023-05-19T11:37:26.717Z,101622.06
2023-05-19T11:39:56.276Z,101621.84
2023-05-19T11:42:24.634Z,101614.66
2023-05-19T11:44:56.160Z,101622.41
2023-05-19T11:47:24.652Z,101616.19
2023-05-19T11:49:54.844Z,101628.84
2023-05-19T11:52:24.009Z,101619.03
2023-05-19T11:54:52.512Z,101629.09
2023-05-19T11:57:21.000Z,101628.38
2023-05-19T11:59:52.246Z,101627.91
2023-05-19T12:02:24.784Z,101634.94
2023-05-19T12:04:54.086Z,101638.66
2023-05-19T12:07:26.049Z,101635.50
2023-05-19T12:09:56.039Z,101612.75
2023-05-19T12:12:24.333Z,101611.38
2023-05-19T12:14:53.348Z,101610.91
2023-05-19T12:17:24.084Z,101617.34
2023-05-19T12:19:52.689Z,101611.00
2023-05-19T12:22:21.095Z,101609.13
2023-05-19T12:24:50.348Z,101600.81
2023-05-19T12:27:26.219Z,101601.47
2023-05-19T12:29:57.214Z,101600.19
2023-05-19T12:32:27.725Z,101585.34
2023-05-19T12:35:00.305Z,101582.31
2023-05-19T12:37:30.085Z,101579.88
2023-05-19T12:39:59.306Z,101575.38
2023-05-19T12:42:31.426Z,101602.31
2023-05-19T12:45:03.238Z,101595.81
2023-05-19T12:47:34.807Z,101588.53
2023-05-19T12:50:10.263Z,101576.78
2023-05-19T12:52:52.120Z,101574.69
2023-05-19T12:55:22.149Z,101570.81
2023-05-19T12:57:57.302Z,101571.38
2023-05-19T13:00:31.155Z,101569.53
2023-05-19T13:03:05.928Z,101582.16
2023-05-19T13:05:39.203Z,101569.63
2023-05-19T13:08:12.673Z,101593.63
2023-05-19T13:10:44.565Z,101588.97
2023-05-19T13:13:13.630Z,101572.16
2023-05-19T13:15:44.066Z,101572.38
2023-05-19T13:18:13.700Z,101559.63
2023-05-19T13:20:44.382Z,101570.72
2023-05-19T13:23:14.212Z,101568.78
2023-05-19T13:25:43.420Z,101579.03
2023-05-19T13:28:12.012Z,101570.88
2023-05-19T13:30:41.960Z,101563.13
2023-05-19T13:33:09.990Z,101554.56
2023-05-19T13:35:38.850Z,101543.41
2023-05-19T13:38:09.862Z,101540.81
2023-05-19T13:40:39.790Z,101530.94
2023-05-19T13:43:09.001Z,101535.41
2023-05-19T13:45:37.717Z,101539.56
2023-05-19T13:48:07.376Z,101546.16
2023-05-19T13:50:36.115Z,101549.50
2023-05-19T13:53:04.396Z,101542.78
2023-05-19T13:55:33.191Z,101531.31
2023-05-19T13:58:01.472Z,101543.72
2023-05-19T14:00:31.759Z,101542.19
2023-05-19T14:03:00.559Z,101542.47
2023-05-19T14:05:29.322Z,101544.53
2023-05-19T14:07:58.149Z,101544.09
2023-05-19T14:10:26.664Z,101544.03
2023-05-19T14:13:25.850Z,101537.38
2023-05-19T14:15:44.215Z,101548.88
2023-05-19T14:18:12.637Z,101550.41
2023-05-19T14:20:41.467Z,101552.50
2023-05-19T14:23:09.945Z,101547.44
2023-05-19T14:25:38.285Z,101534.63
2023-05-19T14:28:06.516Z,101533.88
2023-05-19T14:30:35.006Z,101529.31
2023-05-19T14:33:03.765Z,101531.34
2023-05-19T14:35:32.337Z,101539.09
2023-05-19T14:38:00.832Z,101529.91
2023-05-19T14:40:29.264Z,101524.09
2023-05-19T14:42:57.916Z,101520.13
2023-05-19T14:45:26.241Z,101518.84
2023-05-19T14:47:54.769Z,101525.53
2023-05-19T14:50:23.161Z,101520.38
2023-05-19T14:52:51.405Z,101520.91
2023-05-19T14:55:19.758Z,101518.25
2023-05-19T14:57:48.038Z,101521.78
2023-05-19T15:00:17.684Z,101516.75
2023-05-19T15:02:46.272Z,101528.44
2023-05-19T15:05:14.659Z,101522.03
2023-05-19T15:07:43.016Z,101528.44
2023-05-19T15:10:11.615Z,101526.91
2023-05-19T15:12:39.938Z,101525.34
2023-05-19T15:15:09.156Z,101530.78
2023-05-19T15:17:37.491Z,101532.19
2023-05-19T15:20:06.737Z,101524.09
2023-05-19T15:22:35.172Z,101530.97
2023-05-19T15:25:03.640Z,101536.53
2023-05-19T15:27:31.931Z,101519.22
2023-05-19T15:30:00.310Z,101522.00
2023-05-19T15:32:28.635Z,101515.00
2023-05-19T15:34:57.030Z,101515.09
2023-05-19T15:37:25.541Z,101516.63
2023-05-19T15:39:54.863Z,101517.44
2023-05-19T15:42:23.219Z,101517.63
2023-05-19T15:44:51.526Z,101517.53
2023-05-19T15:47:19.862Z,101500.44
2023-05-19T15:49:48.186Z,101504.91
2023-05-19T15:52:16.575Z,101509.47
2023-05-19T15:54:45.002Z,101510.22
2023-05-19T15:57:13.557Z,101514.50
2023-05-19T15:59:41.996Z,101512.88
2023-05-19T16:02:10.801Z,101507.34
2023-05-19T16:04:39.209Z,101507.81
2023-05-19T16:07:07.532Z,101503.91
2023-05-19T16:09:35.864Z,101496.28
2023-05-19T16:12:04.313Z,101503.91
2023-05-19T16:14:36.338Z,101501.66
2023-05-19T16:17:11.245Z,101507.28
2023-05-19T16:19:39.743Z,101505.81
2023-05-19T16:22:08.051Z,101504.44
2023-05-19T16:24:36.406Z,101509.53
2023-05-19T16:27:05.208Z,101510.53
2023-05-19T16:29:33.541Z,101499.50
2023-05-19T16:32:01.923Z,101504.44
2023-05-19T16:34:30.730Z,101501.66
2023-05-19T16:36:59.228Z,101509.22
2023-05-19T16:39:27.560Z,101499.59
2023-05-19T16:41:55.865Z,101491.28
2023-05-19T16:44:24.583Z,101489.38
2023-05-19T16:46:53.016Z,101489.81
2023-05-19T16:49:21.374Z,101486.94
2023-05-19T16:51:50.024Z,101488.19
2023-05-19T16:54:18.512Z,101486.88
2023-05-19T16:56:46.793Z,101487.88
2023-05-19T16:59:15.074Z,101496.56
2023-05-19T17:01:43.840Z,101482.19
2023-05-19T17:04:12.186Z,101489.97
2023-05-19T17:06:40.579Z,101483.28
2023-05-19T17:09:08.896Z,101490.19
2023-05-19T17:11:37.221Z,101484.84
2023-05-19T17:14:09.250Z,101492.19
2023-05-19T17:16:38.784Z,101485.63
2023-05-19T17:19:07.087Z,101487.59
2023-05-19T17:21:35.647Z,101480.06
2023-05-19T17:24:03.912Z,101490.22
2023-05-19T17:26:32.413Z,101483.13
2023-05-19T17:29:00.753Z,101481.94
2023-05-19T17:31:29.070Z,101487.22
2023-05-19T17:33:57.339Z,101484.19
2023-05-19T17:36:26.070Z,101483.56
2023-05-19T17:38:54.501Z,101477.88
2023-05-19T17:41:22.792Z,101489.03
2023-05-19T17:43:51.266Z,101488.06
2023-05-19T17:46:19.629Z,101495.63
2023-05-19T17:48:48.002Z,101483.72
2023-05-19T17:51:16.320Z,101487.47
2023-05-19T17:53:45.422Z,101492.94
2023-05-19T17:56:13.946Z,101486.53
2023-05-19T17:58:42.628Z,101493.16
2023-05-19T18:01:11.236Z,101495.63
2023-05-19T18:03:39.933Z,101496.41
2023-05-19T18:06:08.472Z,101500.50
2023-05-19T18:08:37.704Z,101498.16
2023-05-19T18:11:06.477Z,101494.91
2023-05-19T18:13:35.304Z,101502.28
2023-05-19T18:16:03.657Z,101497.00
2023-05-19T18:18:34.592Z,101503.09
2023-05-19T18:21:05.888Z,101503.88
2023-05-19T18:23:34.260Z,101504.63
2023-05-19T18:26:02.533Z,101498.13
2023-05-19T18:28:30.871Z,101499.47
2023-05-19T18:31:00.812Z,101505.97
2023-05-19T18:33:31.065Z,101510.81
2023-05-19T18:35:59.982Z,101510.72
2023-05-19T18:38:28.284Z,101513.31
2023-05-19T18:40:56.807Z,101518.50
2023-05-19T18:43:25.237Z,101514.25
2023-05-19T18:45:53.644Z,101509.34
2023-05-19T18:48:22.533Z,101518.41
2023-05-19T18:50:51.407Z,101517.56
2023-05-19T18:53:21.160Z,101529.47
2023-05-19T18:55:49.545Z,101525.09
2023-05-19T18:58:18.875Z,101528.00
2023-05-19T19:00:47.990Z,101526.06
2023-05-19T19:03:16.458Z,101523.59
2023-05-19T19:05:46.085Z,101537.72
2023-05-19T19:08:14.365Z,101535.84
2023-05-19T19:10:43.265Z,101539.44
2023-05-19T19:13:11.613Z,101545.53
2023-05-19T19:15:39.914Z,101544.66
2023-05-19T19:18:08.479Z,101548.63
2023-05-19T19:20:36.868Z,101549.78
2023-05-19T19:23:06.545Z,101549.25
2023-05-19T19:25:35.203Z,101543.31
2023-05-19T19:28:03.683Z,101549.75
2023-05-19T19:30:32.369Z,101554.81
2023-05-19T19:33:01.035Z,101552.75
2023-05-19T19:35:29.475Z,101550.88
2023-05-19T19:37:58.688Z,101558.78
2023-05-19T19:40:26.975Z,101568.75
2023-05-19T19:42:55.374Z,101565.88
2023-05-19T19:45:23.751Z,101579.66
2023-05-19T19:47:52.445Z,101579.09
2023-05-19T19:50:20.778Z,101585.06
2023-05-19T19:52:49.088Z,101587.47
2023-05-19T19:55:17.507Z,101589.69
2023-05-19T19:57:49.152Z,101587.78
2023-05-19T20:00:18.498Z,101592.16
2023-05-19T20:05:19.987Z,101595.38
2023-05-19T20:07:48.246Z,101590.19
2023-05-19T20:10:16.770Z,101595.72
2023-05-19T20:12:47.095Z,101601.41
2023-05-19T20:15:15.960Z,101605.94
2023-05-19T20:17:44.332Z,101608.59
2023-05-19T20:20:13.153Z,101605.06
2023-05-19T20:22:41.637Z,101609.41
2023-05-19T20:25:10.079Z,101607.59
2023-05-19T20:27:38.355Z,101600.91
2023-05-19T20:30:07.495Z,101614.81
2023-05-19T20:32:36.460Z,101607.97
2023-05-19T20:35:05.128Z,101603.03
2023-05-19T20:37:33.487Z,101607.84
2023-05-19T20:40:01.815Z,101608.03
2023-05-19T20:42:30.099Z,101607.06
2023-05-19T20:44:58.990Z,101608.91
2023-05-19T20:47:29.750Z,101603.44
2023-05-19T20:49:58.819Z,101603.13
2023-05-19T20:52:27.389Z,101612.72
2023-05-19T20:54:56.890Z,101607.94
2023-05-19T20:57:27.634Z,101603.00
2023-05-19T20:59:57.116Z,101611.75
2023-05-19T21:02:25.468Z,101605.19
2023-05-19T21:04:53.991Z,101611.25
2023-05-19T21:07:22.603Z,101611.09
2023-05-19T21:09:51.443Z,101612.91
2023-05-19T21:12:23.804Z,101619.66
2023-05-19T21:14:52.445Z,101622.81
2023-05-19T21:17:21.282Z,101616.88
2023-05-19T21:19:50.740Z,101622.97
2023-05-19T21:22:19.158Z,101632.34
2023-05-19T21:24:47.496Z,101626.75
2023-05-19T21:27:15.789Z,101624.44
2023-05-19T21:29:44.058Z,101622.31
2023-05-19T21:32:12.397Z,101623.94
2023-05-19T21:34:40.746Z,101616.72
2023-05-19T21:37:09.082Z,101616.22
2023-05-19T21:39:37.446Z,101620.34
2023-05-19T21:42:06.405Z,101624.75
2023-05-19T21:44:34.733Z,101626.59
2023-05-19T21:47:03.089Z,101622.81
2023-05-19T21:49:31.670Z,101624.28
2023-05-19T21:52:00.016Z,101625.78
2023-05-19T21:54:28.356Z,101629.22
2023-05-19T21:56:56.639Z,101620.19
2023-05-19T21:59:25.017Z,101623.31
2023-05-19T22:01:53.508Z,101627.25
2023-05-19T22:04:22.518Z,101620.69
2023-05-19T22:06:51.056Z,101627.91
2023-05-19T22:09:19.371Z,101625.59
2023-05-19T22:11:47.665Z,101632.84
2023-05-19T22:14:16.185Z,101634.47
2023-05-19T22:16:44.703Z,101625.59
2023-05-19T22:19:13.425Z,101627.25
2023-05-19T22:21:42.778Z,101631.19
2023-05-19T22:24:11.165Z,101638.91
2023-05-19T22:26:42.628Z,101633.66
2023-05-19T22:29:15.099Z,101630.38
2023-05-19T22:31:43.444Z,101636.28
2023-05-19T22:34:15.293Z,101620.69
2023-05-19T22:36:45.912Z,101628.56
2023-05-19T22:39:14.461Z,101627.75
2023-05-19T22:41:42.860Z,101623.66
2023-05-19T22:44:15.386Z,101626.94
2023-05-19T22:46:44.669Z,101624.47
2023-05-19T22:49:13.053Z,101618.88
2023-05-19T22:51:41.330Z,101618.72
2023-05-19T22:54:10.727Z,101618.72
2023-05-19T22:56:38.978Z,101629.03
2023-05-19T22:59:07.295Z,101622.50
2023-05-19T23:01:35.743Z,101629.22
2023-05-19T23:04:04.389Z,101625.09
2023-05-19T23:06:32.702Z,101622.13
2023-05-19T23:09:04.716Z,101627.38
2023-05-19T23:11:33.170Z,101634.59
2023-05-19T23:14:01.961Z,101635.75
2023-05-19T23:16:30.430Z,101634.75
2023-05-19T23:18:58.839Z,101636.38
2023-05-19T23:21:27.157Z,101639.00
2023-05-19T23:23:55.882Z,101640.81
2023-05-19T23:26:24.262Z,101643.44
2023-05-19T23:28:52.601Z,101643.91
2023-05-19T23:31:21.041Z,101637.81
2023-05-19T23:33:49.476Z,101645.19
2023-05-19T23:36:17.802Z,101638.25
2023-05-19T23:38:46.072Z,101639.72
2023-05-19T23:41:14.761Z,101638.06
2023-05-19T23:43:43.097Z,101630.97
2023-05-19T23:46:11.509Z,101630.00
2023-05-19T23:48:39.894Z,101636.03
2023-05-19T23:51:08.188Z,101628.63
2023-05-19T23:53:36.650Z,101633.00
2023-05-19T23:56:05.302Z,101624.13
2023-05-19T23:58:33.586Z,101633.47
